Time;durP1;ratioP1;P1;durP2;ratioP2;P2;SDS_P1;SDS_P2;PMS_P1;PMS_P2;Temp;Humidity;BMP_temperature;BMP_pressure;BME280_temperature;BME280_humidity;BME280_pressure;Samples;Min_cycle;Max_cycle;Signal;HPM_P1;HPM_P2
2023/05/18 00:01:29;;;;;;;1.50;1.50;;;19.40;69.10;;;;;;5060772;28;43375;-73
2023/05/18 00:03:57;;;;;;;1.30;1.30;;;19.50;68.70;;;;;;5062147;28;43888;-73
2023/05/18 00:06:26;;;;;;;1.50;1.50;;;19.60;68.20;;;;;;5071128;28;44746;-74
2023/05/18 00:08:54;;;;;;;1.30;1.30;;;19.70;68.00;;;;;;5062955;28;43427;-73
2023/05/18 00:11:27;;;;;;;1.20;1.20;;;19.80;68.00;;;;;;5069562;28;43475;-73
2023/05/18 00:13:55;;;;;;;1.30;1.30;;;19.70;67.90;;;;;;5062609;28;43835;-74
2023/05/18 00:16:23;;;;;;;1.30;1.30;;;19.60;67.90;;;;;;5058730;28;43423;-75
2023/05/18 00:18:53;;;;;;;1.30;1.30;;;19.60;68.00;;;;;;5072270;28;43535;-75
2023/05/18 00:21:21;;;;;;;1.30;1.30;;;19.50;68.30;;;;;;5067547;28;43413;-73
2023/05/18 00:23:50;;;;;;;1.10;1.10;;;19.50;68.60;;;;;;5073467;28;44052;-72
2023/05/18 00:26:18;;;;;;;1.20;1.20;;;19.50;68.50;;;;;;5059491;28;43786;-74
2023/05/18 00:28:50;;;;;;;1.20;1.20;;;19.50;68.50;;;;;;5068504;28;43469;-74
2023/05/18 00:31:18;;;;;;;1.30;1.30;;;19.40;68.50;;;;;;5066574;28;43593;-74
2023/05/18 00:33:46;;;;;;;1.20;1.20;;;19.40;68.80;;;;;;5056180;28;44124;-74
2023/05/18 00:36:14;;;;;;;1.37;1.37;;;19.40;68.90;;;;;;5065760;28;43543;-74
2023/05/18 00:38:42;;;;;;;1.30;1.30;;;19.40;68.80;;;;;;5062334;28;43474;-74
2023/05/18 00:41:10;;;;;;;1.20;1.20;;;19.40;69.50;;;;;;5060486;28;43499;-74
2023/05/18 00:43:40;;;;;;;1.10;1.10;;;19.40;68.80;;;;;;5066056;28;43975;-74
2023/05/18 00:46:10;;;;;;;1.20;1.20;;;19.30;68.70;;;;;;5062217;27;43729;-74
2023/05/18 00:48:41;;;;;;;1.20;1.20;;;19.30;68.90;;;;;;5076126;27;43434;-74
2023/05/18 00:51:09;;;;;;;1.13;1.13;;;19.40;69.00;;;;;;5066126;27;43438;-74
2023/05/18 00:53:37;;;;;;;1.13;1.13;;;19.40;68.60;;;;;;5071230;28;44642;-74
2023/05/18 00:56:06;;;;;;;1.20;1.20;;;19.60;68.10;;;;;;5064221;28;43439;-75
2023/05/18 00:58:34;;;;;;;1.20;1.20;;;19.70;67.80;;;;;;5066830;28;43469;-74
2023/05/18 01:01:04;;;;;;;1.27;1.27;;;19.80;67.80;;;;;;5073953;27;43557;-73
2023/05/18 01:03:36;;;;;;;1.40;1.40;;;19.70;67.70;;;;;;5060697;28;45645;-74
2023/05/18 01:06:05;;;;;;;2.17;1.20;;;19.70;67.80;;;;;;5064558;28;44075;-73
2023/05/18 01:08:33;;;;;;;1.03;1.03;;;19.60;67.90;;;;;;5070379;28;43489;-74
2023/05/18 01:11:05;;;;;;;1.30;1.30;;;19.60;68.10;;;;;;5066080;27;43453;-74
2023/05/18 01:13:37;;;;;;;1.20;1.20;;;19.50;68.40;;;;;;5064571;28;43832;-73
2023/05/18 01:16:06;;;;;;;1.40;1.40;;;19.50;68.40;;;;;;5066184;28;44423;-73
2023/05/18 01:18:42;;;;;;;1.23;1.20;;;19.40;68.30;;;;;;5068894;28;43483;-73
2023/05/18 01:21:12;;;;;;;1.10;1.10;;;19.50;68.50;;;;;;5068066;28;43546;-73
2023/05/18 01:23:53;;;;;;;1.17;1.17;;;19.40;68.50;;;;;;5067689;28;45709;-74
2023/05/18 01:26:28;;;;;;;1.13;1.13;;;19.30;68.70;;;;;;5059572;28;43925;-73
2023/05/18 01:28:58;;;;;;;1.27;1.27;;;19.40;68.80;;;;;;5066372;28;43468;-74
2023/05/18 01:31:26;;;;;;;1.27;1.20;;;19.40;68.70;;;;;;5060448;28;43589;-74
2023/05/18 01:33:55;;;;;;;1.30;1.30;;;19.40;68.70;;;;;;5064994;28;44738;-74
2023/05/18 01:36:24;;;;;;;1.20;1.20;;;19.30;68.60;;;;;;5070405;27;43478;-74
2023/05/18 01:38:54;;;;;;;1.30;1.30;;;19.30;68.80;;;;;;5065626;28;43481;-72
2023/05/18 01:41:24;;;;;;;1.20;1.20;;;19.40;68.90;;;;;;5067501;28;43479;-74
2023/05/18 01:43:55;;;;;;;1.13;1.13;;;19.50;68.60;;;;;;5060164;28;46553;-74
2023/05/18 01:46:32;;;;;;;1.40;1.37;;;19.60;68.10;;;;;;5058582;28;44683;-73
2023/05/18 01:49:02;;;;;;;1.10;1.10;;;19.70;67.70;;;;;;5065477;28;45014;-73
2023/05/18 01:51:31;;;;;;;1.30;1.30;;;19.70;67.60;;;;;;5064467;28;43708;-72
2023/05/18 01:54:02;;;;;;;1.23;1.23;;;19.70;68.30;;;;;;5071403;28;43890;-74
2023/05/18 01:56:32;;;;;;;1.13;1.13;;;19.60;67.60;;;;;;5069225;28;44616;-74
2023/05/18 01:59:00;;;;;;;1.23;1.23;;;19.60;67.80;;;;;;5063272;27;43545;-74
2023/05/18 02:01:28;;;;;;;1.13;1.13;;;19.50;67.90;;;;;;5055401;28;43514;-73
2023/05/18 02:03:56;;;;;;;1.00;1.00;;;19.50;68.30;;;;;;5076570;28;43821;-74
2023/05/18 02:06:24;;;;;;;1.30;1.30;;;19.50;68.30;;;;;;5055377;27;44256;-73
2023/05/18 02:08:52;;;;;;;1.03;1.03;;;19.40;68.20;;;;;;5062134;28;43658;-74
2023/05/18 02:11:20;;;;;;;1.07;1.07;;;19.40;68.30;;;;;;5074169;28;43574;-73
2023/05/18 02:13:50;;;;;;;1.20;1.20;;;19.40;68.40;;;;;;5059875;28;46400;-73
2023/05/18 02:16:18;;;;;;;0.90;0.90;;;19.30;68.30;;;;;;5067197;28;45065;-73
2023/05/18 02:18:46;;;;;;;1.27;1.27;;;19.30;68.40;;;;;;5070786;28;43465;-71
2023/05/18 02:21:14;;;;;;;1.20;1.20;;;19.30;68.60;;;;;;5067273;28;44329;-74
2023/05/18 02:23:42;;;;;;;1.40;1.40;;;19.30;68.60;;;;;;5066187;28;46187;-74
2023/05/18 02:26:14;;;;;;;1.10;1.10;;;19.30;68.70;;;;;;5072749;28;43379;-73
2023/05/18 02:28:42;;;;;;;1.00;1.00;;;19.30;68.70;;;;;;5067993;28;43403;-73
2023/05/18 02:31:12;;;;;;;1.20;1.20;;;19.20;68.70;;;;;;5069024;28;43532;-73
2023/05/18 02:33:40;;;;;;;1.10;1.10;;;19.20;68.80;;;;;;5061046;28;44018;-74
2023/05/18 02:36:09;;;;;;;1.20;1.20;;;19.30;68.80;;;;;;5061123;28;44123;-74
2023/05/18 02:38:38;;;;;;;1.07;1.07;;;19.50;68.20;;;;;;5058941;28;43514;-71
2023/05/18 02:41:06;;;;;;;1.20;1.13;;;19.70;67.80;;;;;;5067117;28;43648;-74
2023/05/18 02:43:35;;;;;;;1.10;1.10;;;19.80;67.00;;;;;;5061211;28;45991;-72
2023/05/18 02:46:03;;;;;;;1.37;1.30;;;20.00;66.30;;;;;;5066298;28;43486;-73
2023/05/18 02:48:33;;;;;;;1.10;1.10;;;20.30;65.70;;;;;;5065854;28;43533;-74
2023/05/18 02:51:01;;;;;;;1.30;1.30;;;20.40;65.00;;;;;;5068188;28;43488;-73
2023/05/18 02:53:29;;;;;;;1.07;1.07;;;20.60;64.60;;;;;;5079312;27;45739;-73
2023/05/18 02:56:06;;;;;;;0.90;0.90;;;20.70;64.20;;;;;;5060777;28;44158;-74
2023/05/18 02:58:45;;;;;;;1.07;1.07;;;20.80;63.90;;;;;;5069011;28;45322;-73
2023/05/18 03:01:20;;;;;;;0.97;0.97;;;20.90;63.70;;;;;;5066921;28;43621;-73
2023/05/18 03:03:53;;;;;;;1.23;1.23;;;20.80;63.80;;;;;;5066951;28;45733;-73
2023/05/18 03:06:25;;;;;;;1.10;1.10;;;20.70;64.00;;;;;;5062246;28;43940;-73
2023/05/18 03:08:56;;;;;;;1.30;1.30;;;20.50;64.40;;;;;;5061691;28;43459;-73
2023/05/18 03:11:32;;;;;;;2.50;1.63;;;20.40;65.00;;;;;;5064651;28;44097;-75
2023/05/18 03:14:00;;;;;;;2.43;1.80;;;20.30;65.40;;;;;;5069248;27;45704;-74
2023/05/18 03:16:28;;;;;;;6.37;2.83;;;20.20;65.60;;;;;;5062038;28;44526;-74
2023/05/18 03:19:00;;;;;;;2.87;2.23;;;20.00;66.00;;;;;;5071629;27;43923;-73
2023/05/18 03:21:36;;;;;;;12.97;4.87;;;20.00;66.40;;;;;;5065205;28;43620;-74
2023/05/18 03:24:05;;;;;;;17.07;5.67;;;19.80;66.90;;;;;;5067821;27;45685;-74
2023/05/18 03:26:37;;;;;;;17.10;5.87;;;19.80;67.00;;;;;;5055537;28;43571;-71
2023/05/18 03:29:05;;;;;;;15.70;6.20;;;19.80;67.10;;;;;;5062160;28;43444;-72
2023/05/18 03:31:33;;;;;;;15.67;5.60;;;19.70;67.20;;;;;;5068582;28;44034;-74
2023/05/18 03:34:04;;;;;;;16.07;5.73;;;19.60;67.10;;;;;;5067661;27;45669;-74
2023/05/18 03:36:32;;;;;;;15.53;6.37;;;19.60;67.40;;;;;;5070645;28;44094;-74
2023/05/18 03:39:00;;;;;;;19.87;7.30;;;19.50;67.80;;;;;;5065197;28;43477;-74
2023/05/18 03:41:29;;;;;;;20.53;8.00;;;19.60;67.80;;;;;;5060560;28;43492;-74
2023/05/18 03:43:57;;;;;;;17.87;7.80;;;19.60;67.10;;;;;;5065456;28;44688;-74
2023/05/18 03:46:26;;;;;;;15.43;7.00;;;19.80;66.60;;;;;;5057770;28;44833;-73
2023/05/18 03:48:54;;;;;;;18.87;7.70;;;19.90;66.40;;;;;;5064037;28;43434;-73
2023/05/18 03:51:31;;;;;;;21.93;7.50;;;20.00;66.40;;;;;;5070250;28;43563;-73
2023/05/18 03:54:00;;;;;;;17.60;7.40;;;19.90;66.40;;;;;;5061232;28;45852;-71
2023/05/18 03:56:30;;;;;;;16.80;7.30;;;19.80;66.60;;;;;;5064184;28;44600;-72
2023/05/18 03:58:58;;;;;;;19.70;8.10;;;19.70;66.80;;;;;;5061934;28;44209;-74
2023/05/18 04:01:29;;;;;;;19.20;7.90;;;19.60;67.40;;;;;;5073244;28;43468;-74
2023/05/18 04:03:57;;;;;;;19.37;7.57;;;19.60;67.50;;;;;;5071317;28;44947;-74
2023/05/18 04:06:26;;;;;;;15.97;6.73;;;19.60;67.30;;;;;;5061677;28;43614;-74
2023/05/18 04:08:55;;;;;;;18.73;7.80;;;19.60;67.40;;;;;;5063098;28;43447;-74
2023/05/18 04:11:25;;;;;;;16.53;7.50;;;19.50;67.50;;;;;;5062935;28;43591;-74
2023/05/18 04:13:53;;;;;;;19.20;7.97;;;19.50;68.00;;;;;;5058085;28;43681;-74
2023/05/18 04:16:21;;;;;;;19.60;8.37;;;19.50;67.90;;;;;;5069915;28;44643;-73
2023/05/18 04:18:49;;;;;;;18.60;8.00;;;19.60;67.70;;;;;;5067203;28;43465;-73
2023/05/18 04:21:18;;;;;;;18.27;8.07;;;19.70;67.20;;;;;;5070369;28;43546;-73
2023/05/18 04:23:47;;;;;;;18.67;7.60;;;19.80;66.70;;;;;;5058978;28;46091;-73
2023/05/18 04:26:18;;;;;;;15.57;7.33;;;19.80;66.60;;;;;;5059556;28;44560;-74
2023/05/18 04:28:47;;;;;;;16.90;7.60;;;19.80;66.60;;;;;;5072560;28;43824;-73
2023/05/18 04:31:16;;;;;;;15.03;7.47;;;19.70;66.80;;;;;;5059396;28;43604;-72
2023/05/18 04:33:45;;;;;;;15.90;7.23;;;19.60;66.80;;;;;;5068049;28;46012;-74
2023/05/18 04:36:13;;;;;;;18.83;8.13;;;19.60;67.40;;;;;;5064928;28;43532;-74
2023/05/18 04:38:49;;;;;;;18.13;7.70;;;19.50;67.80;;;;;;5061426;28;44574;-73
2023/05/18 04:41:21;;;;;;;19.20;7.90;;;19.50;67.30;;;;;;5064614;27;43597;-73
2023/05/18 04:43:49;;;;;;;15.23;7.43;;;19.50;67.50;;;;;;5065290;28;45744;-74
2023/05/18 04:46:20;;;;;;;16.03;7.33;;;19.40;67.50;;;;;;5067182;28;44799;-74
2023/05/18 04:48:49;;;;;;;16.77;8.10;;;19.40;67.70;;;;;;5062704;28;43464;-73
2023/05/18 04:51:20;;;;;;;16.07;7.53;;;19.40;68.10;;;;;;5063144;28;43435;-73
2023/05/18 04:53:49;;;;;;;15.50;7.53;;;19.50;67.90;;;;;;5073803;27;43594;-73
2023/05/18 04:56:19;;;;;;;16.50;7.53;;;19.60;67.50;;;;;;5059940;28;43983;-74
2023/05/18 04:58:47;;;;;;;17.43;7.57;;;19.60;67.30;;;;;;5063769;27;44154;-74
2023/05/18 05:01:17;;;;;;;14.97;7.33;;;19.60;67.80;;;;;;5062372;28;43553;-74
2023/05/18 05:03:45;;;;;;;16.13;7.60;;;19.50;67.50;;;;;;5060241;28;45374;-74
2023/05/18 05:06:14;;;;;;;13.07;6.50;;;19.60;67.70;;;;;;5072141;28;43364;-74
2023/05/18 05:08:42;;;;;;;16.67;7.93;;;19.50;67.40;;;;;;5066226;28;43410;-73
2023/05/18 05:11:11;;;;;;;16.97;7.53;;;19.50;67.40;;;;;;5067950;28;43467;-74
2023/05/18 05:13:40;;;;;;;14.23;6.87;;;19.50;67.50;;;;;;5061901;28;45620;-74
2023/05/18 05:16:08;;;;;;;12.63;6.70;;;19.40;67.70;;;;;;5070142;28;43992;-74
2023/05/18 05:18:36;;;;;;;13.43;7.27;;;19.40;68.10;;;;;;5066340;28;43513;-71
2023/05/18 05:21:06;;;;;;;11.07;6.43;;;19.40;67.90;;;;;;5061693;28;44037;-74
2023/05/18 05:23:34;;;;;;;12.60;7.07;;;19.40;67.70;;;;;;5063958;28;44163;-75
2023/05/18 05:26:05;;;;;;;13.37;7.30;;;19.40;67.70;;;;;;5062777;28;45085;-74
2023/05/18 05:28:34;;;;;;;13.20;6.73;;;19.30;67.90;;;;;;5067515;28;43402;-74
2023/05/18 05:31:03;;;;;;;14.50;7.10;;;19.30;68.10;;;;;;5051989;28;43537;-73
2023/05/18 05:33:31;;;;;;;12.50;6.63;;;19.40;67.90;;;;;;5076092;27;45587;-74
2023/05/18 05:35:59;;;;;;;12.70;6.93;;;19.50;67.40;;;;;;5072905;28;44702;-74
2023/05/18 05:38:27;;;;;;;13.13;6.97;;;19.60;67.00;;;;;;5059699;28;43416;-74
2023/05/18 05:40:56;;;;;;;11.30;6.67;;;19.70;66.90;;;;;;5061097;28;43913;-74
2023/05/18 05:43:24;;;;;;;11.03;6.63;;;19.70;67.00;;;;;;5065809;28;45018;-72
2023/05/18 05:45:52;;;;;;;10.20;6.47;;;19.60;67.00;;;;;;5067072;28;45371;-72
2023/05/18 05:48:21;;;;;;;13.73;6.27;;;19.60;67.10;;;;;;5058837;28;44066;-74
2023/05/18 05:50:49;;;;;;;11.77;6.37;;;19.50;67.20;;;;;;5061701;28;43423;-74
2023/05/18 05:53:18;;;;;;;13.07;6.50;;;19.40;67.70;;;;;;5069345;28;45466;-74
2023/05/18 05:55:48;;;;;;;12.10;6.40;;;19.40;67.70;;;;;;5069477;28;45994;-72
2023/05/18 05:58:17;;;;;;;10.50;6.17;;;19.40;67.50;;;;;;5062461;28;43561;-74
2023/05/18 06:00:51;;;;;;;9.90;5.53;;;19.40;67.70;;;;;;5070566;28;43558;-74
2023/05/18 06:03:21;;;;;;;10.40;6.17;;;19.30;67.60;;;;;;5058859;27;43845;-73
2023/05/18 06:05:49;;;;;;;14.23;6.03;;;19.30;68.20;;;;;;5062203;28;45139;-72
2023/05/18 06:08:20;;;;;;;12.63;6.00;;;19.30;68.00;;;;;;5061920;28;43509;-74
2023/05/18 06:10:48;;;;;;;11.00;6.37;;;19.30;67.70;;;;;;5068095;28;43626;-73
2023/05/18 06:13:16;;;;;;;10.77;5.73;;;19.30;67.70;;;;;;5067308;27;44047;-73
2023/05/18 06:15:50;;;;;;;12.23;6.07;;;19.30;67.70;;;;;;5062531;28;44684;-73
2023/05/18 06:18:18;;;;;;;9.93;6.17;;;19.30;68.20;;;;;;5068139;28;43510;-73
2023/05/18 06:20:49;;;;;;;12.87;6.33;;;19.30;68.20;;;;;;5056517;28;44517;-73
2023/05/18 06:23:21;;;;;;;11.80;6.43;;;19.40;67.70;;;;;;5068684;28;45055;-73
2023/05/18 06:26:01;;;;;;;6.97;5.27;;;19.60;67.40;;;;;;5056973;28;43560;-74
2023/05/18 06:28:41;;;;;;;8.53;5.80;;;19.60;67.00;;;;;;5067162;28;44005;-73
2023/05/18 06:31:18;;;;;;;8.27;5.47;;;19.70;67.20;;;;;;5070297;28;43494;-73
2023/05/18 06:33:50;;;;;;;10.33;5.73;;;19.60;67.00;;;;;;5060383;28;45854;-73
2023/05/18 06:36:19;;;;;;;8.40;5.57;;;19.60;67.10;;;;;;5068019;27;44852;-72
2023/05/18 06:38:47;;;;;;;8.77;5.80;;;19.50;67.20;;;;;;5062538;28;43423;-73
2023/05/18 06:41:15;;;;;;;8.77;5.17;;;19.40;67.50;;;;;;5066806;27;44485;-73
2023/05/18 06:43:44;;;;;;;8.27;5.40;;;19.40;67.90;;;;;;5055344;28;44028;-72
2023/05/18 06:46:30;;;;;;;8.17;5.87;;;19.40;67.70;;;;;;5059561;28;44984;-74
2023/05/18 06:49:01;;;;;;;7.23;5.17;;;19.40;67.70;;;;;;5070139;28;43505;-74
2023/05/18 06:51:30;;;;;;;8.43;5.37;;;19.30;67.70;;;;;;5068965;28;43490;-75
2023/05/18 06:53:58;;;;;;;7.20;5.23;;;19.30;67.80;;;;;;5063554;28;45928;-74
2023/05/18 06:56:26;;;;;;;8.13;5.30;;;19.30;68.30;;;;;;5067884;28;43954;-74
2023/05/18 06:58:55;;;;;;;6.07;4.87;;;19.30;68.00;;;;;;5064901;28;43477;-73
2023/05/18 07:01:24;;;;;;;7.83;5.17;;;19.30;68.00;;;;;;5062437;28;43477;-71
2023/05/18 07:03:56;;;;;;;6.53;5.07;;;19.30;68.00;;;;;;5063112;28;45032;-73
2023/05/18 07:06:24;;;;;;;9.23;5.30;;;19.20;67.90;;;;;;5063548;28;43403;-73
2023/05/18 07:08:53;;;;;;;9.83;5.97;;;19.20;68.20;;;;;;5074111;28;43438;-73
2023/05/18 07:11:21;;;;;;;8.80;5.50;;;19.30;68.30;;;;;;5058980;28;43864;-73
2023/05/18 07:13:50;;;;;;;7.57;5.23;;;19.30;67.90;;;;;;5065413;28;43867;-73
2023/05/18 07:16:18;;;;;;;6.67;5.03;;;19.50;67.60;;;;;;5067337;28;44238;-73
2023/05/18 07:18:46;;;;;;;7.60;4.73;;;19.60;67.10;;;;;;5055925;28;43363;-72
2023/05/18 07:21:14;;;;;;;8.27;4.83;;;19.60;67.00;;;;;;5062611;28;43456;-73
2023/05/18 07:23:42;;;;;;;6.53;5.10;;;19.60;66.90;;;;;;5061878;28;43863;-74
2023/05/18 07:26:12;;;;;;;5.10;4.60;;;19.50;67.00;;;;;;5066616;28;43968;-72
2023/05/18 07:28:40;;;;;;;8.33;5.10;;;19.50;67.20;;;;;;5062695;28;43462;-72
2023/05/18 07:31:10;;;;;;;8.97;5.60;;;19.40;67.50;;;;;;5071776;28;44546;-74
2023/05/18 07:33:38;;;;;;;7.83;5.10;;;19.30;67.80;;;;;;5062123;28;45690;-72
2023/05/18 07:36:08;;;;;;;6.33;4.43;;;19.30;67.60;;;;;;5062810;28;43423;-73
2023/05/18 07:38:36;;;;;;;6.27;4.70;;;19.30;67.70;;;;;;5073407;28;43343;-75
2023/05/18 07:41:04;;;;;;;5.10;4.60;;;19.30;67.80;;;;;;5062606;28;43601;-74
2023/05/18 07:43:33;;;;;;;6.77;4.60;;;19.20;67.90;;;;;;5056316;28;43607;-74
2023/05/18 07:46:01;;;;;;;6.80;3.90;;;19.20;68.20;;;;;;5081341;28;43347;-73
2023/05/18 07:48:32;;;;;;;6.03;3.00;;;19.20;64.80;;;;;;5068075;28;43438;-75
2023/05/18 07:51:00;;;;;;;11.70;3.17;;;19.30;60.30;;;;;;5075710;28;43776;-75
2023/05/18 07:53:28;;;;;;;5.03;2.93;;;19.30;61.20;;;;;;5071314;28;43610;-73
2023/05/18 07:55:56;;;;;;;6.90;2.93;;;19.30;63.20;;;;;;5076578;27;43443;-74
2023/05/18 07:58:24;;;;;;;2.57;2.37;;;19.30;62.70;;;;;;5075370;28;43443;-74
2023/05/18 08:00:53;;;;;;;5.80;2.73;;;19.20;57.20;;;;;;5070777;28;43493;-74
2023/05/18 08:03:21;;;;;;;5.87;2.63;;;19.20;59.20;;;;;;5076774;28;43595;-73
2023/05/18 08:05:49;;;;;;;2.90;2.40;;;19.20;59.30;;;;;;5074671;28;45691;-74
2023/05/18 08:08:17;;;;;;;4.63;2.47;;;19.20;58.90;;;;;;5076594;28;43371;-73
2023/05/18 08:10:45;;;;;;;3.30;2.47;;;19.10;58.10;;;;;;5060581;28;43477;-75
2023/05/18 08:13:13;;;;;;;4.57;2.40;;;19.00;57.60;;;;;;5068432;28;44107;-74
2023/05/18 08:15:41;;;;;;;4.13;2.17;;;19.00;56.10;;;;;;5076774;28;43491;-74
2023/05/18 08:18:11;;;;;;;2.53;2.13;;;19.00;56.90;;;;;;5068372;28;43890;-74
2023/05/18 08:20:40;;;;;;;5.40;2.90;;;19.00;57.10;;;;;;5066568;28;44049;-74
2023/05/18 08:23:08;;;;;;;2.97;2.07;;;19.00;56.80;;;;;;5082814;27;43609;-75
2023/05/18 08:25:36;;;;;;;4.90;2.47;;;19.00;56.70;;;;;;5065029;28;43489;-75
2023/05/18 08:28:04;;;;;;;5.60;2.70;;;18.90;55.40;;;;;;5067270;28;43418;-74
2023/05/18 08:30:32;;;;;;;5.50;3.07;;;18.90;51.50;;;;;;5056747;28;43556;-74
2023/05/18 08:33:00;;;;;;;4.70;2.87;;;19.00;50.10;;;;;;5058585;28;43938;-75
2023/05/18 08:35:33;;;;;;;7.20;2.90;;;19.00;51.00;;;;;;5061025;27;43440;-74
2023/05/18 08:38:01;;;;;;;5.83;2.57;;;19.10;50.80;;;;;;5055356;28;44169;-74
2023/05/18 08:40:34;;;;;;;4.40;2.30;;;19.10;53.50;;;;;;5052065;28;44761;-75
2023/05/18 08:43:03;;;;;;;3.37;2.37;;;19.10;54.50;;;;;;5065169;28;43606;-74
2023/05/18 08:45:35;;;;;;;3.27;2.70;;;19.10;54.80;;;;;;5068704;27;43601;-73
2023/05/18 08:48:04;;;;;;;4.97;2.13;;;19.00;55.00;;;;;;5060056;28;43464;-74
2023/05/18 08:50:34;;;;;;;7.37;2.77;;;19.00;55.10;;;;;;5064618;27;43424;-73
2023/05/18 08:53:04;;;;;;;5.77;2.50;;;18.90;54.40;;;;;;5059346;28;43607;-74
2023/05/18 08:55:35;;;;;;;3.33;2.40;;;18.90;54.90;;;;;;5069002;28;43362;-74
2023/05/18 08:58:05;;;;;;;4.83;2.33;;;18.90;54.50;;;;;;5053944;28;44192;-75
2023/05/18 09:00:34;;;;;;;3.00;2.30;;;18.90;54.30;;;;;;5061828;28;43527;-72
2023/05/18 09:03:02;;;;;;;5.90;2.70;;;18.90;54.70;;;;;;5059020;28;45731;-75
2023/05/18 09:05:30;;;;;;;4.90;2.63;;;18.90;55.70;;;;;;5061996;28;44769;-74
2023/05/18 09:08:00;;;;;;;3.70;2.53;;;18.90;56.60;;;;;;5062142;28;43552;-74
2023/05/18 09:10:28;;;;;;;3.77;2.33;;;19.00;57.00;;;;;;5065096;28;43458;-74
2023/05/18 09:12:56;;;;;;;3.10;2.27;;;19.00;57.20;;;;;;5067833;28;43996;-74
2023/05/18 09:15:26;;;;;;;4.30;2.27;;;19.00;56.90;;;;;;5064057;28;44047;-73
2023/05/18 09:17:54;;;;;;;2.43;2.00;;;19.00;57.10;;;;;;5061264;28;43434;-74
2023/05/18 09:20:22;;;;;;;5.27;2.57;;;19.00;58.40;;;;;;5065558;28;43442;-74
2023/05/18 09:22:51;;;;;;;4.90;2.37;;;19.00;58.20;;;;;;5068236;28;45315;-74
2023/05/18 09:25:20;;;;;;;3.30;2.50;;;19.00;58.10;;;;;;5065470;28;43450;-74
2023/05/18 09:27:50;;;;;;;2.10;2.00;;;19.00;58.40;;;;;;5068120;28;43412;-73
2023/05/18 09:30:18;;;;;;;2.97;2.43;;;18.90;58.50;;;;;;5059254;28;44548;-74
2023/05/18 09:32:46;;;;;;;2.23;2.00;;;18.90;59.50;;;;;;5067944;28;43746;-74
2023/05/18 09:35:15;;;;;;;2.10;1.90;;;18.90;59.30;;;;;;5062155;28;45225;-73
2023/05/18 09:37:43;;;;;;;2.10;2.00;;;18.90;59.30;;;;;;5076382;28;43465;-73
2023/05/18 09:40:11;;;;;;;2.67;2.13;;;18.90;59.40;;;;;;5071776;28;43940;-74
2023/05/18 09:42:42;;;;;;;2.33;2.13;;;18.90;59.50;;;;;;5068230;28;45738;-73
2023/05/18 09:45:16;;;;;;;2.17;1.97;;;18.90;59.70;;;;;;5069063;28;44097;-73
2023/05/18 09:47:44;;;;;;;2.87;1.83;;;18.90;60.50;;;;;;5064559;28;43575;-73
2023/05/18 09:50:12;;;;;;;1.90;1.80;;;19.00;60.90;;;;;;5061271;28;43477;-73
2023/05/18 09:52:43;;;;;;;2.23;2.03;;;19.10;60.80;;;;;;5061117;28;43866;-74
2023/05/18 09:55:11;;;;;;;2.20;2.10;;;19.20;60.50;;;;;;5063745;28;44379;-72
2023/05/18 09:57:41;;;;;;;2.13;2.00;;;19.10;60.00;;;;;;5068872;27;43435;-73
2023/05/18 10:00:11;;;;;;;2.30;2.20;;;19.10;60.30;;;;;;5064262;28;43462;-74
2023/05/18 10:02:40;;;;;;;2.37;1.93;;;19.10;61.00;;;;;;5068810;28;43871;-74
2023/05/18 10:05:18;;;;;;;2.20;2.10;;;19.10;60.40;;;;;;5065130;27;43506;-74
2023/05/18 10:07:47;;;;;;;2.67;2.20;;;19.10;60.40;;;;;;5060547;28;43510;-74
2023/05/18 10:10:17;;;;;;;2.43;2.30;;;19.10;60.60;;;;;;5065594;27;43865;-73
2023/05/18 10:12:46;;;;;;;3.77;2.30;;;19.00;60.70;;;;;;5059663;28;45709;-74
2023/05/18 10:15:14;;;;;;;3.27;2.50;;;19.00;59.60;;;;;;5074978;28;43411;-74
2023/05/18 10:17:43;;;;;;;2.33;2.10;;;19.00;58.80;;;;;;5067864;28;43383;-75
2023/05/18 10:20:12;;;;;;;2.27;2.10;;;19.00;57.90;;;;;;5077169;27;43464;-74
2023/05/18 10:22:40;;;;;;;3.33;2.30;;;19.00;57.50;;;;;;5079067;28;45405;-73
2023/05/18 10:25:09;;;;;;;4.97;2.50;;;18.90;56.40;;;;;;5077707;28;44742;-74
2023/05/18 10:27:37;;;;;;;3.00;2.50;;;18.90;55.60;;;;;;5078097;28;43414;-71
2023/05/18 10:30:08;;;;;;;3.80;2.80;;;18.90;53.10;;;;;;5082928;27;43383;-74
2023/05/18 10:32:36;;;;;;;5.33;2.90;;;18.90;50.80;;;;;;5070914;27;44610;-72
2023/05/18 10:35:05;;;;;;;5.13;2.63;;;18.90;50.50;;;;;;5074762;28;45310;-72
2023/05/18 10:37:34;;;;;;;4.63;2.80;;;19.00;52.40;;;;;;5075959;28;43458;-73
2023/05/18 10:40:03;;;;;;;3.30;2.57;;;19.00;53.70;;;;;;5070421;28;43415;-74
2023/05/18 10:42:31;;;;;;;3.10;2.40;;;19.00;54.30;;;;;;5082297;28;45483;-73
2023/05/18 10:45:00;;;;;;;5.27;3.00;;;19.00;52.60;;;;;;5075655;27;44042;-76
2023/05/18 10:47:30;;;;;;;4.17;2.80;;;18.90;54.00;;;;;;5077627;28;43494;-74
2023/05/18 10:49:59;;;;;;;4.07;2.30;;;19.00;54.50;;;;;;5079967;28;43436;-74
2023/05/18 10:52:30;;;;;;;3.90;2.70;;;18.90;54.40;;;;;;5075294;28;43844;-75
2023/05/18 10:54:59;;;;;;;6.10;2.50;;;18.90;54.70;;;;;;5074038;28;44776;-74
2023/05/18 10:57:29;;;;;;;5.07;2.50;;;18.90;53.50;;;;;;5072764;28;43458;-75
2023/05/18 10:59:57;;;;;;;2.93;2.30;;;18.90;54.30;;;;;;5072800;27;43415;-74
2023/05/18 11:02:25;;;;;;;2.97;2.50;;;18.90;53.90;;;;;;5066624;28;46974;-75
2023/05/18 11:04:57;;;;;;;3.27;2.40;;;18.90;54.90;;;;;;5061778;28;43513;-74
2023/05/18 11:07:27;;;;;;;2.77;2.50;;;18.90;54.70;;;;;;5079036;28;43923;-74
2023/05/18 11:09:55;;;;;;;4.10;2.73;;;18.90;53.90;;;;;;5066603;28;43489;-74
2023/05/18 11:12:23;;;;;;;5.10;2.50;;;18.90;54.40;;;;;;5069106;28;43850;-74
2023/05/18 11:14:52;;;;;;;3.70;2.57;;;18.90;55.30;;;;;;5072277;27;43985;-74
2023/05/18 11:17:21;;;;;;;2.77;2.30;;;19.00;55.80;;;;;;5064444;28;43396;-72
2023/05/18 11:20:16;;;;;;;2.47;2.27;;;19.00;55.10;;;;;;5056847;28;44042;-73
2023/05/18 11:22:48;;;;;;;2.77;2.50;;;19.10;55.10;;;;;;5054563;28;43716;-74
2023/05/18 11:25:38;;;;;;;2.57;2.37;;;19.00;56.70;;;;;;5062326;28;45616;-74
2023/05/18 11:28:08;;;;;;;2.63;2.40;;;19.00;56.00;;;;;;5051549;28;43529;-72
2023/05/18 11:30:50;;;;;;;2.50;2.30;;;19.00;56.10;;;;;;5053926;28;43784;-74
2023/05/18 11:33:23;;;;;;;2.23;2.10;;;19.00;56.30;;;;;;5064669;28;45556;-74
2023/05/18 11:36:14;;;;;;;2.50;2.30;;;19.00;56.70;;;;;;5065649;28;43562;-74
2023/05/18 11:38:50;;;;;;;2.50;2.30;;;18.90;57.30;;;;;;5058511;28;43961;-75
2023/05/18 11:41:28;;;;;;;2.33;2.13;;;18.90;57.10;;;;;;5062816;28;43795;-74
2023/05/18 11:44:14;;;;;;;2.33;2.10;;;18.90;57.30;;;;;;5065398;28;44415;-74
2023/05/18 11:46:51;;;;;;;2.27;2.17;;;18.90;57.40;;;;;;5067506;28;43494;-74
2023/05/18 11:49:21;;;;;;;2.33;2.13;;;18.90;57.60;;;;;;5062928;28;44008;-74
2023/05/18 11:52:01;;;;;;;4.87;2.30;;;18.90;58.10;;;;;;5074233;28;43664;-74
2023/05/18 11:54:29;;;;;;;3.73;2.13;;;18.90;59.00;;;;;;5075669;28;44158;-73
2023/05/18 11:56:57;;;;;;;2.10;2.00;;;19.00;59.10;;;;;;5068883;27;43323;-74
2023/05/18 11:59:31;;;;;;;2.00;1.90;;;19.10;59.00;;;;;;5064838;28;43395;-74
2023/05/18 12:02:01;;;;;;;2.20;2.10;;;19.10;58.40;;;;;;5067849;28;43408;-74
2023/05/18 12:04:30;;;;;;;2.43;2.23;;;19.10;58.20;;;;;;5057327;27;43716;-75
2023/05/18 12:07:00;;;;;;;3.20;2.30;;;19.10;59.20;;;;;;5064882;28;43411;-73
2023/05/18 12:09:28;;;;;;;1.90;1.80;;;19.10;58.80;;;;;;5061970;28;43470;-73
2023/05/18 12:11:56;;;;;;;1.87;1.77;;;19.10;58.60;;;;;;5061033;28;43519;-73
2023/05/18 12:14:24;;;;;;;1.73;1.63;;;19.00;58.60;;;;;;5080717;28;43877;-72
2023/05/18 12:16:52;;;;;;;2.00;1.90;;;19.00;58.80;;;;;;5066724;28;43445;-73
2023/05/18 12:19:22;;;;;;;2.00;1.90;;;19.00;59.40;;;;;;5060075;28;43549;-74
2023/05/18 12:21:50;;;;;;;1.73;1.73;;;19.00;59.30;;;;;;5070460;28;43583;-73
2023/05/18 12:24:20;;;;;;;2.13;2.03;;;19.00;59.20;;;;;;5058755;28;45479;-77
2023/05/18 12:26:48;;;;;;;1.80;1.70;;;19.00;59.40;;;;;;5059888;28;44456;-74
2023/05/18 12:29:18;;;;;;;5.33;3.20;;;19.00;59.20;;;;;;5051465;28;43428;-75
2023/05/18 12:31:47;;;;;;;6.93;2.97;;;18.90;58.00;;;;;;5075986;28;43459;-74
2023/05/18 12:34:15;;;;;;;3.07;2.77;;;18.90;56.20;;;;;;5068609;27;45602;-75
2023/05/18 12:36:53;;;;;;;5.23;2.63;;;18.90;56.70;;;;;;5070302;28;43482;-74
2023/05/18 12:39:22;;;;;;;5.07;2.70;;;18.90;57.00;;;;;;5055704;28;43480;-75
2023/05/18 12:41:53;;;;;;;2.50;2.30;;;18.90;56.00;;;;;;5061690;28;43511;-74
2023/05/18 12:44:21;;;;;;;4.60;2.93;;;18.90;55.50;;;;;;5064487;28;44474;-75
2023/05/18 12:46:49;;;;;;;3.90;2.70;;;18.90;56.50;;;;;;5065984;28;43578;-74
2023/05/18 12:49:18;;;;;;;4.10;2.67;;;18.90;57.40;;;;;;5064455;28;43516;-74
2023/05/18 12:51:46;;;;;;;3.03;2.77;;;19.00;57.60;;;;;;5060997;28;44367;-74
2023/05/18 12:54:14;;;;;;;3.57;2.60;;;19.10;57.70;;;;;;5063299;28;43740;-73
2023/05/18 12:56:59;;;;;;;2.97;2.13;;;19.20;57.70;;;;;;5062747;27;44734;-74
2023/05/18 12:59:29;;;;;;;3.57;2.20;;;19.20;57.10;;;;;;5063981;28;43443;-74